createdAt,value
2018-06-29T00:00:06.866Z,56.20
2018-06-29T00:02:34.940Z,54.75
2018-06-29T00:05:03.102Z,57.43
2018-06-29T00:07:31.307Z,55.00
2018-06-29T00:09:59.367Z,53.95
2018-06-29T00:12:27.519Z,54.10
2018-06-29T00:14:55.735Z,55.15
2018-06-29T00:17:23.798Z,55.25
2018-06-29T00:19:51.924Z,55.38
2018-06-29T00:22:19.943Z,55.70
2018-06-29T00:24:48.133Z,56.20
2018-06-29T00:27:16.189Z,55.75
2018-06-29T00:29:44.244Z,53.50
2018-06-29T00:32:12.447Z,55.88
2018-06-29T00:34:40.496Z,55.55
2018-06-29T00:37:08.681Z,55.08
2018-06-29T00:39:36.979Z,55.90
2018-06-29T00:42:05.124Z,57.47
2018-06-29T00:44:33.218Z,54.53
2018-06-29T00:47:01.475Z,54.93
2018-06-29T00:49:29.773Z,54.93
2018-06-29T00:51:57.933Z,55.20
2018-06-29T00:54:25.955Z,55.58
2018-06-29T00:56:54.142Z,53.65
2018-06-29T00:59:21.981Z,54.67
2018-06-29T01:01:50.012Z,55.67
2018-06-29T01:04:18.363Z,52.78
2018-06-29T01:06:46.396Z,55.00
2018-06-29T01:09:14.440Z,53.40
2018-06-29T01:11:42.758Z,52.20
2018-06-29T01:14:10.884Z,53.30
2018-06-29T01:16:38.993Z,50.30
2018-06-29T01:19:07.336Z,53.52
2018-06-29T01:21:35.432Z,54.25
2018-06-29T01:24:03.810Z,54.60
2018-06-29T01:26:31.983Z,54.00
2018-06-29T01:29:00.241Z,56.63
2018-06-29T01:31:28.454Z,55.90
2018-06-29T01:33:56.526Z,53.68
2018-06-29T01:36:24.673Z,54.63
2018-06-29T01:38:52.867Z,53.50
2018-06-29T01:41:20.926Z,53.90
2018-06-29T01:43:49.317Z,55.48
2018-06-29T01:46:17.365Z,53.98
2018-06-29T01:48:45.584Z,58.13
2018-06-29T01:51:13.757Z,60.60
2018-06-29T01:53:41.805Z,59.25
2018-06-29T01:56:09.991Z,60.78
2018-06-29T01:58:38.159Z,60.85
2018-06-29T02:01:06.343Z,59.90
2018-06-29T02:03:34.517Z,65.37
2018-06-29T02:06:02.813Z,62.78
2018-06-29T02:08:30.863Z,63.65
2018-06-29T02:10:58.954Z,60.70
2018-06-29T02:13:27.008Z,60.85
2018-06-29T02:15:55.073Z,59.70
2018-06-29T02:18:23.260Z,60.28
2018-06-29T02:20:51.520Z,62.40
2018-06-29T02:23:19.631Z,60.28
2018-06-29T02:25:47.657Z,62.17
2018-06-29T02:28:15.688Z,58.52
2018-06-29T02:30:43.906Z,57.30
2018-06-29T02:33:12.122Z,56.83
2018-06-29T02:35:40.583Z,57.00
2018-06-29T02:38:08.861Z,59.35
2018-06-29T02:40:36.960Z,57.08
2018-06-29T02:43:05.116Z,58.87
2018-06-29T02:45:33.199Z,57.43
2018-06-29T02:48:01.245Z,57.90
2018-06-29T02:50:29.477Z,58.23
2018-06-29T02:52:57.630Z,57.83
2018-06-29T02:55:25.714Z,56.33
2018-06-29T02:57:53.861Z,57.40
2018-06-29T03:00:21.957Z,55.15
2018-06-29T03:02:50.146Z,56.85
2018-06-29T03:05:18.191Z,54.93
2018-06-29T03:07:47.189Z,54.10
2018-06-29T03:10:15.468Z,53.63
2018-06-29T03:12:48.223Z,52.25
2018-06-29T03:15:16.650Z,53.17
2018-06-29T03:17:45.008Z,53.50
2018-06-29T03:20:13.174Z,53.98
2018-06-29T03:22:41.264Z,55.27
2018-06-29T03:25:09.377Z,52.78
2018-06-29T03:27:37.507Z,52.95
2018-06-29T03:30:05.565Z,55.25
2018-06-29T03:32:33.756Z,52.98
2018-06-29T03:35:01.924Z,54.50
2018-06-29T03:37:30.009Z,52.63
2018-06-29T03:39:58.069Z,54.63
2018-06-29T03:42:26.252Z,53.15
2018-06-29T03:44:54.409Z,51.33
2018-06-29T03:47:22.921Z,54.20
2018-06-29T03:49:51.198Z,52.00
2018-06-29T03:52:19.410Z,51.90
2018-06-29T03:54:47.660Z,51.80
2018-06-29T03:57:15.792Z,53.92
2018-06-29T03:59:44.021Z,52.17
2018-06-29T04:02:12.151Z,54.48
2018-06-29T04:04:40.453Z,54.48
2018-06-29T04:07:08.705Z,51.25
2018-06-29T04:09:36.806Z,55.15
2018-06-29T04:12:05.076Z,54.80
2018-06-29T04:14:33.109Z,54.70
2018-06-29T04:17:01.009Z,50.90
2018-06-29T04:19:29.093Z,50.70
2018-06-29T04:21:57.247Z,48.60
2018-06-29T04:24:25.534Z,49.15
2018-06-29T04:26:53.619Z,49.20
2018-06-29T04:29:21.660Z,48.63
2018-06-29T04:31:49.460Z,49.63
2018-06-29T04:34:17.618Z,49.50
2018-06-29T04:36:45.825Z,47.73
2018-06-29T04:39:13.852Z,47.13
2018-06-29T04:41:41.640Z,46.48
2018-06-29T04:44:09.800Z,46.92
2018-06-29T04:46:37.998Z,46.47
2018-06-29T04:49:06.152Z,46.55
2018-06-29T04:51:34.358Z,47.90
2018-06-29T04:54:02.428Z,46.10
2018-06-29T04:56:30.473Z,47.20
2018-06-29T04:58:58.577Z,46.73
2018-06-29T05:01:26.635Z,46.25
2018-06-29T05:03:54.939Z,47.55
2018-06-29T05:06:23.075Z,44.63
2018-06-29T05:08:51.476Z,47.15
2018-06-29T05:11:19.560Z,48.20
2018-06-29T05:13:47.641Z,48.10
2018-06-29T05:16:15.778Z,46.20
2018-06-29T05:18:43.983Z,46.37
2018-06-29T05:21:12.016Z,45.08
2018-06-29T05:23:39.818Z,45.48
2018-06-29T05:26:07.890Z,45.83
2018-06-29T05:28:36.219Z,45.38
2018-06-29T05:31:04.359Z,42.78
2018-06-29T05:33:32.393Z,44.10
2018-06-29T05:36:00.601Z,46.35
2018-06-29T05:38:28.625Z,43.98
2018-06-29T05:40:56.446Z,44.48
2018-06-29T05:43:24.673Z,42.15
2018-06-29T05:45:52.892Z,41.42
2018-06-29T05:48:21.128Z,41.85
2018-06-29T05:50:49.328Z,41.70
2018-06-29T05:53:17.508Z,43.33
2018-06-29T05:55:45.583Z,40.15
2018-06-29T05:58:13.757Z,37.45
2018-06-29T06:03:32.533Z,37.48
2018-06-29T06:06:00.589Z,38.33
2018-06-29T06:08:28.687Z,37.80
2018-06-29T06:10:56.769Z,39.40
2018-06-29T06:13:24.938Z,40.43
2018-06-29T06:15:53.134Z,38.98
2018-06-29T06:18:21.152Z,37.55
2018-06-29T06:20:49.344Z,37.75
2018-06-29T06:23:19.731Z,39.73
2018-06-29T06:25:48.293Z,36.68
2018-06-29T06:28:17.138Z,36.53
2018-06-29T06:30:45.414Z,37.28
2018-06-29T06:33:13.654Z,37.73
2018-06-29T06:35:41.975Z,39.53
2018-06-29T06:38:10.384Z,36.43
2018-06-29T06:40:38.543Z,36.40
2018-06-29T06:43:07.031Z,39.00
2018-06-29T06:45:35.404Z,33.20
2018-06-29T06:48:03.685Z,37.00
2018-06-29T06:50:31.777Z,31.00
2018-06-29T06:52:59.900Z,34.35
2018-06-29T06:55:27.699Z,33.00
2018-06-29T06:57:55.772Z,35.52
2018-06-29T07:00:23.940Z,33.35
2018-06-29T07:02:52.041Z,32.93
2018-06-29T07:05:20.188Z,36.45
2018-06-29T07:07:48.271Z,30.75
2018-06-29T07:10:16.318Z,32.60
2018-06-29T07:12:44.669Z,35.92
2018-06-29T07:15:13.004Z,32.13
2018-06-29T07:17:41.052Z,34.33
2018-06-29T07:20:09.250Z,32.78
2018-06-29T07:22:37.407Z,33.40
2018-06-29T07:25:05.836Z,36.37
2018-06-29T07:27:34.374Z,36.68
2018-06-29T07:30:02.398Z,34.48
2018-06-29T07:32:30.556Z,36.42
2018-06-29T07:34:58.724Z,33.00
2018-06-29T07:37:26.844Z,34.00
2018-06-29T07:39:54.973Z,33.20
2018-06-29T07:42:23.152Z,33.83
2018-06-29T07:44:51.193Z,34.38
2018-06-29T07:47:19.462Z,33.60
2018-06-29T07:49:47.485Z,32.83
2018-06-29T07:52:15.592Z,33.48
2018-06-29T07:54:43.923Z,33.53
2018-06-29T07:57:12.190Z,33.13
2018-06-29T07:59:40.210Z,33.63
2018-06-29T08:02:08.358Z,32.90
2018-06-29T08:04:36.384Z,32.85
2018-06-29T08:07:04.506Z,35.30
2018-06-29T08:09:32.541Z,35.03
2018-06-29T08:12:00.932Z,35.30
2018-06-29T08:14:29.082Z,35.83
2018-06-29T08:16:57.007Z,35.90
2018-06-29T08:19:24.941Z,38.15
2018-06-29T08:21:53.117Z,38.80
2018-06-29T08:24:21.333Z,37.08
2018-06-29T08:26:49.480Z,35.78
2018-06-29T08:29:17.559Z,33.53
2018-06-29T08:31:45.749Z,34.78
2018-06-29T08:37:40.068Z,35.40
2018-06-29T08:40:09.232Z,34.98
2018-06-29T08:42:37.714Z,32.67
2018-06-29T08:45:06.674Z,32.15
2018-06-29T08:47:34.972Z,30.68
2018-06-29T08:50:03.179Z,30.45
2018-06-29T08:52:31.464Z,30.82
2018-06-29T08:54:59.559Z,30.10
2018-06-29T08:57:27.625Z,28.57
2018-06-29T08:59:55.664Z,28.47
2018-06-29T09:02:23.816Z,28.30
2018-06-29T09:04:52.075Z,28.30
2018-06-29T09:07:20.169Z,28.87
2018-06-29T09:09:48.293Z,28.23
2018-06-29T09:12:16.327Z,26.12
2018-06-29T09:14:44.650Z,27.32
2018-06-29T09:17:12.681Z,28.85
2018-06-29T09:19:40.782Z,26.65
2018-06-29T09:22:08.815Z,26.48
2018-06-29T09:24:36.941Z,26.87
2018-06-29T09:27:05.063Z,27.30
2018-06-29T09:29:33.174Z,25.17
2018-06-29T09:32:01.467Z,26.23
2018-06-29T09:34:29.637Z,27.58
2018-06-29T09:36:57.691Z,25.60
2018-06-29T09:39:25.896Z,24.33
2018-06-29T09:41:54.152Z,22.58
2018-06-29T09:44:22.219Z,23.50
2018-06-29T09:46:50.281Z,22.80
2018-06-29T09:49:18.341Z,21.68
2018-06-29T09:51:46.693Z,22.35
2018-06-29T09:54:14.685Z,22.35
2018-06-29T09:56:42.829Z,22.85
2018-06-29T09:59:11.045Z,21.30
2018-06-29T10:01:39.124Z,20.40
2018-06-29T10:04:07.202Z,22.23
2018-06-29T10:06:35.506Z,21.93
2018-06-29T10:09:05.622Z,22.40
2018-06-29T10:11:33.776Z,22.90
2018-06-29T10:14:01.953Z,23.00
2018-06-29T10:16:30.046Z,23.40
2018-06-29T10:18:58.103Z,22.75
2018-06-29T10:21:26.285Z,23.67
2018-06-29T10:23:54.417Z,24.63
2018-06-29T10:26:22.420Z,24.18
2018-06-29T10:28:50.837Z,24.45
2018-06-29T10:31:18.963Z,24.75
2018-06-29T10:33:47.069Z,24.05
2018-06-29T10:36:15.204Z,23.77
2018-06-29T10:38:43.454Z,26.05
2018-06-29T10:41:11.469Z,25.32
2018-06-29T10:43:39.670Z,25.37
2018-06-29T10:46:07.824Z,24.43
2018-06-29T10:48:35.926Z,25.43
2018-06-29T10:51:04.190Z,24.20
2018-06-29T10:53:32.449Z,24.50
2018-06-29T10:56:00.544Z,26.35
2018-06-29T10:58:28.592Z,26.87
2018-06-29T11:00:56.671Z,27.20
2018-06-29T11:03:24.733Z,27.25
2018-06-29T11:05:52.849Z,28.00
2018-06-29T11:08:20.873Z,27.25
2018-06-29T11:10:49.193Z,27.80
2018-06-29T11:13:17.226Z,29.20
2018-06-29T11:15:45.337Z,31.12
2018-06-29T11:18:13.489Z,29.10
2018-06-29T11:20:41.666Z,26.95
2018-06-29T11:23:09.857Z,29.10
2018-06-29T11:25:38.117Z,28.73
2018-06-29T11:28:06.325Z,29.23
2018-06-29T11:30:37.263Z,29.37
2018-06-29T11:33:08.497Z,28.75
2018-06-29T11:35:39.597Z,28.00
2018-06-29T11:38:10.746Z,27.02
2018-06-29T11:40:38.519Z,27.13
2018-06-29T11:43:07.362Z,26.90
2018-06-29T11:45:35.404Z,26.37
2018-06-29T11:48:03.596Z,26.85
2018-06-29T11:50:31.676Z,26.68
2018-06-29T11:53:02.717Z,27.35
2018-06-29T11:55:31.346Z,27.73
2018-06-29T11:58:00.954Z,27.50
2018-06-29T12:00:29.150Z,27.80
2018-06-29T12:02:57.454Z,26.15
2018-06-29T12:05:26.255Z,25.85
2018-06-29T12:07:54.756Z,25.55
2018-06-29T12:10:24.290Z,26.80
2018-06-29T12:12:52.294Z,24.65
2018-06-29T12:15:20.454Z,25.70
2018-06-29T12:17:48.637Z,25.70
2018-06-29T12:20:16.726Z,23.80
2018-06-29T12:22:44.812Z,23.07
2018-06-29T12:25:13.080Z,23.32
2018-06-29T12:27:41.180Z,23.20
2018-06-29T12:30:09.410Z,24.10
2018-06-29T12:32:37.588Z,24.90
2018-06-29T12:35:05.997Z,25.45
2018-06-29T12:37:34.182Z,23.73
2018-06-29T12:40:02.272Z,24.57
2018-06-29T12:42:30.400Z,29.30
2018-06-29T12:44:58.482Z,25.12
2018-06-29T12:47:26.940Z,25.80
2018-06-29T12:49:55.067Z,25.15
2018-06-29T12:52:23.185Z,26.52
2018-06-29T12:54:51.295Z,26.35
2018-06-29T12:57:19.430Z,28.25
2018-06-29T12:59:48.162Z,29.35
2018-06-29T13:02:16.225Z,27.00
2018-06-29T13:04:44.353Z,24.00
2018-06-29T13:07:12.598Z,24.92
2018-06-29T13:09:40.652Z,25.20
2018-06-29T13:12:08.701Z,24.35
2018-06-29T13:14:36.999Z,25.92
2018-06-29T13:17:05.285Z,25.90
2018-06-29T13:19:33.437Z,27.00
2018-06-29T13:22:01.766Z,25.30
2018-06-29T13:24:29.785Z,24.60
2018-06-29T13:26:58.196Z,24.25
2018-06-29T13:29:26.225Z,23.73
2018-06-29T13:31:54.047Z,25.30
2018-06-29T13:34:22.105Z,24.12
2018-06-29T13:36:50.356Z,23.85
2018-06-29T13:39:18.501Z,26.30
2018-06-29T13:41:46.499Z,25.08
2018-06-29T13:44:14.794Z,22.73
2018-06-29T13:46:42.884Z,23.75
2018-06-29T13:49:11.004Z,24.05
2018-06-29T13:51:39.719Z,23.65
2018-06-29T13:54:07.993Z,23.60
2018-06-29T13:56:36.116Z,23.40
2018-06-29T13:59:04.141Z,23.25
2018-06-29T14:01:32.433Z,23.67
2018-06-29T14:04:00.727Z,23.85
2018-06-29T14:06:28.787Z,23.33
2018-06-29T14:08:56.903Z,23.07
2018-06-29T14:11:25.021Z,23.03
2018-06-29T14:13:53.069Z,23.80
2018-06-29T14:16:20.964Z,23.77
2018-06-29T14:18:49.068Z,24.65
2018-06-29T14:21:17.110Z,24.47
2018-06-29T14:23:45.207Z,26.00
2018-06-29T14:26:13.488Z,25.85
2018-06-29T14:28:41.525Z,23.90
2018-06-29T14:31:09.723Z,24.03
2018-06-29T14:33:37.883Z,23.55
2018-06-29T14:36:05.994Z,22.98
2018-06-29T14:38:34.328Z,22.80
2018-06-29T14:41:02.727Z,22.80
2018-06-29T14:43:30.602Z,22.00
2018-06-29T14:45:58.701Z,22.20
2018-06-29T14:48:26.955Z,23.38
2018-06-29T14:50:55.099Z,22.67
2018-06-29T14:53:23.102Z,24.20
2018-06-29T14:55:51.180Z,23.87
2018-06-29T14:58:19.218Z,23.30
2018-06-29T15:00:47.113Z,21.40
2018-06-29T15:03:15.288Z,22.45
2018-06-29T15:05:43.466Z,22.07
2018-06-29T15:08:11.535Z,21.55
2018-06-29T15:10:39.837Z,21.52
2018-06-29T15:13:08.124Z,21.50
2018-06-29T15:15:36.447Z,22.20
2018-06-29T15:18:04.551Z,20.92
2018-06-29T15:20:32.718Z,21.43
2018-06-29T15:23:00.917Z,20.27
2018-06-29T15:25:29.060Z,22.60
2018-06-29T15:27:57.457Z,19.95
2018-06-29T15:30:25.629Z,19.80
2018-06-29T15:32:53.690Z,19.37
2018-06-29T15:35:21.984Z,20.17
2018-06-29T15:37:50.280Z,21.02
2018-06-29T15:40:18.317Z,21.07
2018-06-29T15:42:46.414Z,20.02
2018-06-29T15:45:14.614Z,20.60
2018-06-29T15:47:42.758Z,20.77
2018-06-29T15:50:10.836Z,21.17
2018-06-29T15:52:38.976Z,21.13
2018-06-29T15:55:06.997Z,19.67
2018-06-29T15:57:35.160Z,19.10
2018-06-29T16:00:04.414Z,19.92
2018-06-29T16:02:32.557Z,20.08
2018-06-29T16:05:00.601Z,21.27
2018-06-29T16:07:28.886Z,21.30
2018-06-29T16:09:56.952Z,19.50
2018-06-29T16:12:25.105Z,20.60
2018-06-29T16:14:53.214Z,21.90
2018-06-29T16:17:21.251Z,20.45
2018-06-29T16:19:49.352Z,18.27
2018-06-29T16:22:17.436Z,18.52
2018-06-29T16:24:45.473Z,18.30
2018-06-29T16:27:13.613Z,18.37
2018-06-29T16:29:41.808Z,16.85
2018-06-29T16:32:09.613Z,17.77
2018-06-29T16:34:37.925Z,18.17
2018-06-29T16:37:06.277Z,17.70
2018-06-29T16:39:34.373Z,16.77
2018-06-29T16:42:02.477Z,16.77
2018-06-29T16:44:30.355Z,16.57
2018-06-29T16:46:58.260Z,17.07
2018-06-29T16:49:26.345Z,15.50
2018-06-29T16:51:54.485Z,14.30
2018-06-29T16:54:22.572Z,14.98
2018-06-29T16:56:50.953Z,16.40
2018-06-29T16:59:19.109Z,15.58
2018-06-29T17:01:47.223Z,13.20
2018-06-29T17:04:15.260Z,13.20
2018-06-29T17:06:43.346Z,13.40
2018-06-29T17:09:11.500Z,12.35
2018-06-29T17:11:39.406Z,13.45
2018-06-29T17:14:07.478Z,12.70
2018-06-29T17:16:35.545Z,14.47
2018-06-29T17:19:03.769Z,14.20
2018-06-29T17:21:31.832Z,14.90
2018-06-29T17:23:59.875Z,13.50
2018-06-29T17:26:28.161Z,14.47
2018-06-29T17:28:56.298Z,14.35
2018-06-29T17:31:24.316Z,13.40
2018-06-29T17:33:52.447Z,13.50
2018-06-29T17:36:20.429Z,13.60
2018-06-29T17:38:51.308Z,13.72
2018-06-29T17:41:20.200Z,13.35
2018-06-29T17:43:48.724Z,13.93
2018-06-29T17:46:16.916Z,12.85
2018-06-29T17:48:45.560Z,13.35
2018-06-29T17:51:15.388Z,13.90
2018-06-29T17:53:43.622Z,15.08
2018-06-29T17:56:13.360Z,15.30
2018-06-29T17:58:42.727Z,16.27
2018-06-29T18:01:11.018Z,14.55
2018-06-29T18:03:39.179Z,16.63
2018-06-29T18:06:07.225Z,15.90
2018-06-29T18:08:35.443Z,15.88
2018-06-29T18:11:04.019Z,17.25
2018-06-29T18:13:34.281Z,18.40
2018-06-29T18:16:02.593Z,17.60
2018-06-29T18:18:32.450Z,16.55
2018-06-29T18:21:00.468Z,17.05
2018-06-29T18:23:28.939Z,17.25
2018-06-29T18:25:57.764Z,17.27
2018-06-29T18:28:26.286Z,17.05
2018-06-29T18:30:54.668Z,17.10
2018-06-29T18:33:22.944Z,16.80
2018-06-29T18:35:51.104Z,17.98
2018-06-29T18:38:19.193Z,17.55
2018-06-29T18:40:47.249Z,18.52
2018-06-29T18:43:15.302Z,18.90
2018-06-29T18:45:43.480Z,18.60
2018-06-29T18:48:11.655Z,19.07
2018-06-29T18:50:39.752Z,20.20
2018-06-29T18:53:08.024Z,19.37
2018-06-29T18:55:36.174Z,19.00
2018-06-29T18:58:04.272Z,19.30
2018-06-29T19:00:32.538Z,19.57
2018-06-29T19:03:00.795Z,20.08
2018-06-29T19:05:29.089Z,23.10
2018-06-29T19:07:57.253Z,24.27
2018-06-29T19:10:25.451Z,24.87
2018-06-29T19:12:53.636Z,25.55
2018-06-29T19:15:21.663Z,25.77
2018-06-29T19:17:49.875Z,28.12
2018-06-29T19:20:18.147Z,28.90
2018-06-29T19:22:46.338Z,31.27
2018-06-29T19:25:14.377Z,35.20
2018-06-29T19:27:42.485Z,36.65
2018-06-29T19:30:10.721Z,37.90
2018-06-29T19:32:38.814Z,40.27
2018-06-29T19:35:07.172Z,38.20
2018-06-29T19:37:35.376Z,37.48
2018-06-29T19:40:05.684Z,34.78
2018-06-29T19:42:34.264Z,35.30
2018-06-29T19:45:02.440Z,35.20
2018-06-29T19:47:30.655Z,35.85
2018-06-29T19:49:58.736Z,36.30
2018-06-29T19:52:26.968Z,38.20
2018-06-29T19:54:55.254Z,38.23
2018-06-29T19:57:23.608Z,37.85
2018-06-29T19:59:51.535Z,37.73
2018-06-29T20:02:19.788Z,39.00
2018-06-29T20:04:47.865Z,39.15
2018-06-29T20:07:15.958Z,40.52
2018-06-29T20:09:44.088Z,38.67
2018-06-29T20:12:12.192Z,39.27
2018-06-29T20:14:40.269Z,37.48
2018-06-29T20:17:08.330Z,39.13
2018-06-29T20:19:36.620Z,40.20
2018-06-29T20:22:04.801Z,38.55
2018-06-29T20:24:32.979Z,40.95
2018-06-29T20:27:01.021Z,39.95
2018-06-29T20:29:29.212Z,39.53
2018-06-29T20:32:04.583Z,40.25
2018-06-29T20:37:41.508Z,40.17
2018-06-29T20:40:13.101Z,40.23
2018-06-29T20:42:45.408Z,39.70
2018-06-29T20:45:17.981Z,38.88
2018-06-29T20:47:46.962Z,35.28
2018-06-29T20:50:17.888Z,36.63
2018-06-29T20:52:46.236Z,35.33
2018-06-29T20:55:15.800Z,36.48
2018-06-29T20:57:44.952Z,36.10
2018-06-29T21:00:17.556Z,35.92
2018-06-29T21:02:46.885Z,37.70
2018-06-29T21:05:19.552Z,36.20
2018-06-29T21:07:51.045Z,39.05
2018-06-29T21:10:23.483Z,40.43
2018-06-29T21:12:55.117Z,41.28
2018-06-29T21:15:24.554Z,40.75
2018-06-29T21:17:52.795Z,42.88
2018-06-29T21:20:21.155Z,41.73
2018-06-29T21:22:49.249Z,42.43
2018-06-29T21:25:17.498Z,40.20
2018-06-29T21:27:45.496Z,40.57
2018-06-29T21:30:13.459Z,39.92
2018-06-29T21:32:41.229Z,40.15
2018-06-29T21:35:09.023Z,40.80
2018-06-29T21:37:37.215Z,41.55
2018-06-29T21:40:05.476Z,43.75
2018-06-29T21:42:33.667Z,42.43
2018-06-29T21:45:01.777Z,41.77
2018-06-29T21:47:29.785Z,40.10
2018-06-29T21:49:57.965Z,41.67
2018-06-29T21:52:26.722Z,40.80
2018-06-29T21:54:55.040Z,41.60
2018-06-29T21:57:23.116Z,42.85
2018-06-29T21:59:51.304Z,41.33
2018-06-29T22:02:19.413Z,41.37
2018-06-29T22:04:47.564Z,40.48
2018-06-29T22:07:15.641Z,38.80
2018-06-29T22:09:43.798Z,39.23
2018-06-29T22:12:11.957Z,40.58
2018-06-29T22:14:40.121Z,40.87
2018-06-29T22:17:08.201Z,42.27
2018-06-29T22:19:36.207Z,40.60
2018-06-29T22:22:04.357Z,39.67
2018-06-29T22:24:32.533Z,39.35
2018-06-29T22:27:00.829Z,40.05
2018-06-29T22:29:28.973Z,41.30
2018-06-29T22:31:57.184Z,42.70
2018-06-29T22:34:25.364Z,41.37
2018-06-29T22:36:53.383Z,42.95
2018-06-29T22:39:21.182Z,42.80
2018-06-29T22:41:49.355Z,42.23
2018-06-29T22:44:17.509Z,41.85
2018-06-29T22:46:45.616Z,44.08
2018-06-29T22:49:13.656Z,43.60
2018-06-29T22:51:41.749Z,44.83
2018-06-29T22:54:10.142Z,44.55
2018-06-29T22:56:38.280Z,43.23
2018-06-29T22:59:06.175Z,43.80
2018-06-29T23:01:34.428Z,45.15
2018-06-29T23:04:02.325Z,45.45
2018-06-29T23:06:30.465Z,44.18
2018-06-29T23:08:58.318Z,45.38
2018-06-29T23:11:26.604Z,46.85
2018-06-29T23:13:54.620Z,46.63
2018-06-29T23:16:22.792Z,48.00
2018-06-29T23:18:50.881Z,49.23
2018-06-29T23:21:19.033Z,50.90
2018-06-29T23:23:47.084Z,50.15
2018-06-29T23:26:15.287Z,52.48
2018-06-29T23:28:43.444Z,52.87
2018-06-29T23:31:11.568Z,49.42
2018-06-29T23:33:39.608Z,47.73
2018-06-29T23:36:07.679Z,48.98
2018-06-29T23:38:35.765Z,49.70
2018-06-29T23:41:03.800Z,54.42
2018-06-29T23:43:31.896Z,55.93
2018-06-29T23:46:00.170Z,53.68
2018-06-29T23:48:28.248Z,52.03
2018-06-29T23:50:56.312Z,54.90
2018-06-29T23:53:24.409Z,56.48
2018-06-29T23:55:52.605Z,56.47
2018-06-29T23:58:20.769Z,56.05
